Time;durP1;ratioP1;P1;durP2;ratioP2;P2;SDS_P1;SDS_P2;PMS_P1;PMS_P2;Temp;Humidity;BMP_temperature;BMP_pressure;BME280_temperature;BME280_humidity;BME280_pressure;Samples;Min_cycle;Max_cycle;Signal;HPM_P1;HPM_P2
2021/11/30 00:01:45;;;;;;;6.35;3.50;;;1.50;99.90;;;;;;5073422;28;20036;-57
2021/11/30 00:04:12;;;;;;;5.88;3.45;;;1.60;99.90;;;;;;5083307;28;20032;-58
2021/11/30 00:06:38;;;;;;;6.97;3.40;;;1.60;99.90;;;;;;5073429;28;20037;-58
2021/11/30 00:11:50;;;;;;;5.40;3.63;;;1.60;99.90;;;;;;5065781;28;20070;-57
2021/11/30 00:14:16;;;;;;;7.22;3.88;;;1.60;99.90;;;;;;5078267;28;20032;-59
2021/11/30 00:16:42;;;;;;;5.70;3.58;;;1.60;99.90;;;;;;5070573;28;20094;-56
2021/11/30 00:19:07;;;;;;;6.70;3.78;;;1.60;99.90;;;;;;5068419;28;20105;-59
2021/11/30 00:21:33;;;;;;;8.50;3.28;;;1.60;99.90;;;;;;5058657;28;20040;-59
2021/11/30 00:23:58;;;;;;;11.65;3.78;;;1.70;99.90;;;;;;5065502;28;20075;-59
2021/11/30 00:26:24;;;;;;;7.63;4.00;;;1.70;99.90;;;;;;5065188;28;20389;-56
2021/11/30 00:28:50;;;;;;;7.15;3.58;;;1.70;99.90;;;;;;5068325;28;20111;-59
2021/11/30 00:31:15;;;;;;;7.15;3.60;;;1.70;99.90;;;;;;5058293;28;20032;-59
2021/11/30 00:33:41;;;;;;;7.45;3.90;;;1.70;99.90;;;;;;5064152;28;20063;-59
2021/11/30 00:36:07;;;;;;;11.55;5.07;;;1.70;99.90;;;;;;5052188;28;20544;-58
2021/11/30 00:38:32;;;;;;;9.82;4.55;;;1.70;99.90;;;;;;5062469;28;20086;-57
2021/11/30 00:40:58;;;;;;;13.80;4.78;;;1.70;99.90;;;;;;5065522;28;20051;-59
2021/11/30 00:43:31;;;;;;;5.88;3.63;;;1.70;99.90;;;;;;5067421;28;20060;-58
2021/11/30 00:46:02;;;;;;;11.68;5.18;;;1.70;99.90;;;;;;5062412;28;20513;-55
2021/11/30 00:48:31;;;;;;;11.27;4.78;;;1.70;99.90;;;;;;5066188;28;20122;-59
2021/11/30 00:51:06;;;;;;;13.20;5.18;;;1.80;99.90;;;;;;5063311;28;20115;-57
2021/11/30 00:53:32;;;;;;;11.13;5.13;;;1.70;99.90;;;;;;5066050;28;20127;-55
2021/11/30 00:55:57;;;;;;;9.82;4.88;;;1.70;99.90;;;;;;5064750;28;20477;-57
2021/11/30 00:58:23;;;;;;;14.90;4.90;;;1.70;99.90;;;;;;5067655;28;20036;-57
2021/11/30 01:00:49;;;;;;;17.35;5.13;;;1.70;99.90;;;;;;5063156;28;20047;-57
2021/11/30 01:03:15;;;;;;;10.52;5.50;;;1.80;99.90;;;;;;5063669;28;20123;-58
2021/11/30 01:05:40;;;;;;;9.43;5.32;;;1.70;99.90;;;;;;5065095;28;20069;-58
2021/11/30 01:08:06;;;;;;;12.70;5.07;;;1.70;99.90;;;;;;5061725;28;20060;-55
2021/11/30 01:10:32;;;;;;;14.65;6.13;;;1.70;99.90;;;;;;5066775;28;20048;-58
2021/11/30 01:12:58;;;;;;;12.18;6.00;;;1.70;99.90;;;;;;5064590;28;20053;-57
2021/11/30 01:15:24;;;;;;;14.20;5.38;;;1.70;99.90;;;;;;5066888;28;21681;-57
2021/11/30 01:17:50;;;;;;;10.57;6.00;;;1.70;99.90;;;;;;5060658;28;20036;-57
2021/11/30 01:20:17;;;;;;;11.30;6.07;;;1.60;99.90;;;;;;5066383;28;20043;-56
2021/11/30 01:22:43;;;;;;;11.60;6.28;;;1.60;99.90;;;;;;5054598;28;20032;-57
2021/11/30 01:25:10;;;;;;;10.05;6.43;;;1.60;99.90;;;;;;5066172;28;20032;-56
2021/11/30 01:27:37;;;;;;;10.93;5.88;;;1.60;99.90;;;;;;5067890;28;20060;-58
2021/11/30 01:30:05;;;;;;;11.05;5.82;;;1.60;99.90;;;;;;5066552;28;20047;-59
2021/11/30 01:32:31;;;;;;;12.18;5.97;;;1.60;99.90;;;;;;5063466;28;20048;-58
2021/11/30 01:34:57;;;;;;;10.25;5.57;;;1.50;99.90;;;;;;5060961;28;20029;-55
2021/11/30 01:37:23;;;;;;;12.75;5.53;;;1.60;99.90;;;;;;5075042;28;20040;-58
2021/11/30 01:39:49;;;;;;;10.90;4.82;;;1.60;99.90;;;;;;5067323;28;20039;-54
2021/11/30 01:42:15;;;;;;;9.85;4.50;;;1.60;99.90;;;;;;5058338;28;20036;-59
2021/11/30 01:49:52;;;;;;;10.18;5.47;;;1.50;99.90;;;;;;5067032;28;20082;-58
2021/11/30 01:52:19;;;;;;;10.38;5.63;;;1.50;99.90;;;;;;5054462;28;20044;-58
2021/11/30 01:54:45;;;;;;;13.77;6.00;;;1.50;99.90;;;;;;5059039;28;20127;-58
2021/11/30 01:57:14;;;;;;;9.45;5.20;;;1.50;99.90;;;;;;5062630;28;20044;-59
2021/11/30 01:59:41;;;;;;;7.78;5.50;;;1.40;99.90;;;;;;5067559;28;20068;-59
2021/11/30 02:02:07;;;;;;;10.70;5.93;;;1.40;99.90;;;;;;5059826;28;20554;-57
2021/11/30 02:04:34;;;;;;;11.43;5.78;;;1.40;99.90;;;;;;5064738;28;20051;-58
2021/11/30 02:06:59;;;;;;;11.63;5.80;;;1.40;99.90;;;;;;5057766;28;20115;-57
2021/11/30 02:09:27;;;;;;;13.00;6.47;;;1.40;99.90;;;;;;5064575;28;20116;-58
2021/11/30 02:11:53;;;;;;;12.13;6.35;;;1.40;99.90;;;;;;5055290;28;20040;-57
2021/11/30 02:14:18;;;;;;;12.95;6.50;;;1.40;99.90;;;;;;5065691;28;20063;-54
2021/11/30 02:16:46;;;;;;;12.50;6.22;;;1.40;99.90;;;;;;5058108;28;20086;-59
2021/11/30 02:19:12;;;;;;;14.07;7.22;;;1.30;99.90;;;;;;5066828;28;20043;-59
2021/11/30 02:21:40;;;;;;;14.15;7.35;;;1.30;99.90;;;;;;5056310;28;20140;-55
2021/11/30 02:24:08;;;;;;;12.43;6.25;;;1.30;99.90;;;;;;5062697;28;20522;-56
2021/11/30 02:26:35;;;;;;;12.90;6.05;;;1.30;99.90;;;;;;5058171;28;20040;-58
2021/11/30 02:29:03;;;;;;;15.15;7.45;;;1.30;99.90;;;;;;5066592;28;20484;-54
2021/11/30 02:31:35;;;;;;;13.60;7.55;;;1.30;99.90;;;;;;5054773;28;20040;-57
2021/11/30 02:34:01;;;;;;;16.88;7.53;;;1.20;99.90;;;;;;5063065;28;20036;-58
2021/11/30 02:36:36;;;;;;;15.00;7.57;;;1.20;99.90;;;;;;5050950;28;20898;-58
2021/11/30 02:39:06;;;;;;;8.80;5.55;;;1.10;99.90;;;;;;5064261;28;20510;-59
2021/11/30 02:41:32;;;;;;;12.93;6.30;;;1.10;99.90;;;;;;5054404;28;20568;-58
2021/11/30 02:43:58;;;;;;;15.10;6.80;;;1.10;99.90;;;;;;5065248;28;20032;-56
2021/11/30 02:46:48;;;;;;;16.70;7.03;;;1.10;99.90;;;;;;5056962;28;20098;-58
2021/11/30 02:49:19;;;;;;;13.95;5.93;;;1.00;99.90;;;;;;5060783;28;20109;-56
2021/11/30 02:51:48;;;;;;;11.45;5.40;;;1.00;99.90;;;;;;5060447;28;20036;-58
2021/11/30 02:54:17;;;;;;;8.38;5.15;;;1.00;99.90;;;;;;5060414;28;20107;-57
2021/11/30 02:56:53;;;;;;;11.27;5.60;;;0.90;99.90;;;;;;5063343;28;20090;-59
2021/11/30 02:59:20;;;;;;;14.18;5.45;;;0.90;99.90;;;;;;5065854;28;20036;-59
2021/11/30 03:02:02;;;;;;;16.67;6.45;;;0.80;99.90;;;;;;5063184;28;20093;-57
2021/11/30 03:04:28;;;;;;;12.73;5.57;;;0.70;99.90;;;;;;5076912;28;20063;-57
2021/11/30 03:06:55;;;;;;;14.43;6.13;;;0.80;99.90;;;;;;5053309;28;20111;-59
2021/11/30 03:09:22;;;;;;;11.48;5.30;;;0.70;99.90;;;;;;5064828;28;20062;-57
2021/11/30 03:11:48;;;;;;;15.15;5.75;;;0.70;99.90;;;;;;5055555;28;20033;-58
2021/11/30 03:14:14;;;;;;;9.88;4.85;;;0.70;99.90;;;;;;5063057;28;20037;-59
2021/11/30 03:16:40;;;;;;;11.38;4.57;;;0.70;99.90;;;;;;5064984;28;20048;-59
2021/11/30 03:19:06;;;;;;;11.23;3.80;;;0.60;99.90;;;;;;5066363;28;20039;-59
2021/11/30 03:21:33;;;;;;;8.40;3.95;;;0.50;99.90;;;;;;5057212;28;20500;-59
2021/11/30 03:23:59;;;;;;;8.52;4.32;;;0.50;99.90;;;;;;5065014;28;20149;-58
2021/11/30 03:26:24;;;;;;;11.63;5.18;;;0.50;99.90;;;;;;5062022;28;20044;-56
2021/11/30 03:28:50;;;;;;;11.10;5.15;;;0.40;99.90;;;;;;5065687;28;20080;-59
2021/11/30 03:31:34;;;;;;;12.07;6.18;;;0.40;99.90;;;;;;5055832;28;20112;-59
2021/11/30 03:34:01;;;;;;;14.65;5.18;;;0.30;99.90;;;;;;5058184;28;20048;-58
2021/11/30 03:36:31;;;;;;;13.93;5.65;;;0.30;99.90;;;;;;5051336;28;20052;-57
2021/11/30 03:38:58;;;;;;;9.68;5.00;;;0.30;99.90;;;;;;5064219;28;20039;-59
2021/11/30 03:41:24;;;;;;;15.13;4.95;;;0.30;99.90;;;;;;5054524;28;20041;-57
2021/11/30 03:43:50;;;;;;;8.98;4.32;;;0.20;99.90;;;;;;5062918;28;20039;-59
2021/11/30 03:46:17;;;;;;;8.73;4.35;;;0.20;99.90;;;;;;5056029;28;20047;-58
2021/11/30 03:48:42;;;;;;;15.32;4.88;;;0.10;99.90;;;;;;5065030;28;20040;-58
2021/11/30 03:51:08;;;;;;;9.07;4.18;;;0.10;99.90;;;;;;5056632;28;20033;-59
2021/11/30 03:53:34;;;;;;;7.47;3.53;;;0.10;99.90;;;;;;5064085;28;20040;-57
2021/11/30 03:55:59;;;;;;;8.02;3.53;;;0.10;99.90;;;;;;5066321;28;20120;-58
2021/11/30 03:58:25;;;;;;;7.45;3.33;;;0.10;99.90;;;;;;5068668;28;20120;-55
2021/11/30 04:00:50;;;;;;;8.50;3.08;;;0.10;99.90;;;;;;5063731;28;20033;-59
2021/11/30 04:03:16;;;;;;;8.43;3.78;;;0.10;99.90;;;;;;5061300;28;20060;-56
2021/11/30 04:05:42;;;;;;;7.97;3.17;;;0.20;99.90;;;;;;5063286;28;20041;-59
2021/11/30 04:08:07;;;;;;;7.05;2.58;;;0.20;99.90;;;;;;5062869;28;20750;-58
2021/11/30 04:10:33;;;;;;;7.15;2.70;;;0.20;99.90;;;;;;5084244;28;20037;-59
2021/11/30 04:12:59;;;;;;;5.68;2.53;;;0.20;99.90;;;;;;5068984;28;20055;-59
2021/11/30 04:15:25;;;;;;;6.28;2.85;;;0.20;99.90;;;;;;5078262;28;20430;-58
2021/11/30 04:17:50;;;;;;;5.57;2.30;;;0.30;99.90;;;;;;5068948;28;20767;-59
2021/11/30 04:20:17;;;;;;;3.63;2.60;;;0.20;99.90;;;;;;5068342;28;20407;-58
2021/11/30 04:22:43;;;;;;;16.00;2.50;;;0.30;99.90;;;;;;5059267;28;20072;-57
2021/11/30 04:25:10;;;;;;;3.65;2.20;;;0.30;99.90;;;;;;5066784;28;20043;-59
2021/11/30 04:27:36;;;;;;;5.82;2.00;;;0.30;99.90;;;;;;5067774;28;20499;-55
2021/11/30 04:30:04;;;;;;;3.20;2.00;;;0.30;99.90;;;;;;5068713;28;20032;-60
2021/11/30 04:32:30;;;;;;;4.25;2.00;;;0.30;99.90;;;;;;5067550;28;20499;-59
2021/11/30 04:34:56;;;;;;;4.82;2.08;;;0.30;99.90;;;;;;5060856;28;20035;-57
2021/11/30 04:37:21;;;;;;;5.25;2.10;;;0.40;99.90;;;;;;5059374;28;20055;-58
2021/11/30 04:39:47;;;;;;;4.05;2.35;;;0.40;99.90;;;;;;5067384;28;20040;-57
2021/11/30 04:42:13;;;;;;;4.28;2.08;;;0.40;99.90;;;;;;5057719;28;20519;-58
2021/11/30 04:44:45;;;;;;;4.63;2.10;;;0.40;99.90;;;;;;5064933;28;20083;-57
2021/11/30 04:47:12;;;;;;;2.60;1.33;;;0.40;99.90;;;;;;5059770;28;20401;-59
2021/11/30 04:49:51;;;;;;;2.25;1.58;;;0.40;99.90;;;;;;5067852;28;20481;-58
2021/11/30 04:52:17;;;;;;;16.65;1.80;;;0.50;99.90;;;;;;5057120;28;20076;-58
2021/11/30 04:54:43;;;;;;;2.75;1.63;;;0.50;99.90;;;;;;5064746;28;20574;-58
2021/11/30 04:57:10;;;;;;;4.97;1.58;;;0.40;99.90;;;;;;5065547;28;20108;-60
2021/11/30 04:59:36;;;;;;;2.45;1.30;;;0.40;99.90;;;;;;5065226;28;20033;-60
2021/11/30 05:02:02;;;;;;;1.92;1.35;;;0.40;99.90;;;;;;5056823;28;20040;-60
2021/11/30 05:04:29;;;;;;;2.88;0.98;;;0.40;99.90;;;;;;5061831;28;20413;-58
2021/11/30 05:06:54;;;;;;;1.48;0.98;;;0.50;99.90;;;;;;5073702;28;20071;-57
2021/11/30 05:09:20;;;;;;;1.42;1.10;;;0.50;99.90;;;;;;5071350;28;20079;-60
2021/11/30 05:11:45;;;;;;;2.25;1.10;;;0.50;99.90;;;;;;5078438;28;20739;-59
2021/11/30 05:14:11;;;;;;;1.00;0.90;;;0.50;99.90;;;;;;5069200;28;20780;-59
2021/11/30 05:16:38;;;;;;;0.63;0.55;;;0.60;99.90;;;;;;5055193;28;20048;-60
2021/11/30 05:19:04;;;;;;;0.70;0.50;;;0.60;99.90;;;;;;5065905;28;20068;-60
2021/11/30 05:21:31;;;;;;;0.52;0.47;;;0.60;99.90;;;;;;5054345;28;20092;-59
2021/11/30 05:23:59;;;;;;;0.68;0.40;;;0.60;99.90;;;;;;5062227;28;20040;-58
2021/11/30 05:26:26;;;;;;;0.63;0.40;;;0.60;99.90;;;;;;5060820;28;20415;-60
2021/11/30 05:28:52;;;;;;;0.47;0.40;;;0.60;99.90;;;;;;5063441;28;20040;-62
2021/11/30 05:31:18;;;;;;;0.80;0.73;;;0.60;99.90;;;;;;5056531;28;20032;-61
2021/11/30 05:33:45;;;;;;;0.50;0.40;;;0.70;99.90;;;;;;5065675;28;20143;-61
2021/11/30 05:36:10;;;;;;;0.30;0.30;;;0.70;99.90;;;;;;5054138;28;20060;-60
2021/11/30 05:38:37;;;;;;;2.83;0.30;;;0.70;99.90;;;;;;5065259;28;20032;-61
2021/11/30 05:41:03;;;;;;;0.55;0.20;;;0.70;99.90;;;;;;5059917;28;20109;-61
2021/11/30 05:43:29;;;;;;;0.30;0.20;;;0.70;99.90;;;;;;5060639;28;20032;-61
2021/11/30 05:45:55;;;;;;;0.55;0.30;;;0.80;99.90;;;;;;5058332;28;20052;-59
2021/11/30 05:48:20;;;;;;;0.57;0.25;;;0.80;99.90;;;;;;5059265;28;20044;-59
2021/11/30 05:50:46;;;;;;;0.20;0.20;;;0.80;99.90;;;;;;5055223;28;20090;-60
2021/11/30 05:53:12;;;;;;;0.20;0.20;;;0.90;99.90;;;;;;5059301;28;21169;-60
2021/11/30 05:55:37;;;;;;;0.68;0.30;;;0.90;99.90;;;;;;5061475;28;20045;-67
2021/11/30 05:58:05;;;;;;;2.17;0.30;;;0.80;99.90;;;;;;5058480;28;20036;-63
2021/11/30 06:00:32;;;;;;;0.10;0.10;;;0.90;99.90;;;;;;5059830;28;20044;-63
2021/11/30 06:03:06;;;;;;;0.50;0.32;;;0.90;99.90;;;;;;5056450;28;21128;-63
2021/11/30 06:05:33;;;;;;;0.47;0.30;;;0.90;99.90;;;;;;5059405;28;20051;-60
2021/11/30 06:08:00;;;;;;;0.10;0.10;;;0.90;99.90;;;;;;5058385;28;20381;-60
2021/11/30 06:10:26;;;;;;;0.20;0.20;;;1.00;99.90;;;;;;5063324;28;20059;-61
2021/11/30 06:12:52;;;;;;;0.20;0.20;;;1.00;99.90;;;;;;5060146;28;20032;-61
2021/11/30 06:15:17;;;;;;;14.18;0.50;;;1.00;99.90;;;;;;5058758;28;20033;-61
2021/11/30 06:17:43;;;;;;;0.52;0.20;;;1.00;99.90;;;;;;5058449;28;20178;-63
2021/11/30 06:20:11;;;;;;;0.32;0.10;;;1.00;99.90;;;;;;5066157;28;20411;-62
2021/11/30 06:22:39;;;;;;;0.20;0.20;;;1.00;99.90;;;;;;5057072;28;20071;-62
2021/11/30 06:25:06;;;;;;;0.20;0.20;;;1.00;99.90;;;;;;5066010;28;20029;-62
2021/11/30 06:27:33;;;;;;;0.10;0.10;;;1.00;99.90;;;;;;5066260;28;20071;-63
2021/11/30 06:29:59;;;;;;;0.75;0.32;;;1.00;99.90;;;;;;5066078;28;20044;-63
2021/11/30 06:32:25;;;;;;;1.08;0.40;;;1.00;99.90;;;;;;5053527;28;21880;-63
2021/11/30 06:34:50;;;;;;;0.20;0.20;;;1.10;99.90;;;;;;5065239;28;20056;-63
2021/11/30 06:37:16;;;;;;;0.55;0.22;;;1.10;99.90;;;;;;5079745;28;20123;-63
2021/11/30 06:39:42;;;;;;;4.57;1.40;;;1.10;99.90;;;;;;5065275;28;20066;-63
2021/11/30 06:42:08;;;;;;;0.38;0.30;;;1.10;99.90;;;;;;5056545;28;20093;-63
2021/11/30 06:44:35;;;;;;;0.32;0.30;;;1.10;99.90;;;;;;5059673;28;20577;-63
2021/11/30 06:47:03;;;;;;;0.10;0.10;;;1.10;99.90;;;;;;5059378;28;20098;-64
2021/11/30 06:49:29;;;;;;;1.77;0.52;;;1.10;99.90;;;;;;5059594;28;20048;-64
2021/11/30 06:51:55;;;;;;;0.30;0.20;;;1.20;99.90;;;;;;5061683;28;20040;-65
2021/11/30 06:54:20;;;;;;;1.35;0.20;;;1.20;99.90;;;;;;5057636;28;20029;-64
2021/11/30 06:56:46;;;;;;;0.20;0.20;;;1.20;99.90;;;;;;5062345;28;20407;-65
2021/11/30 06:59:12;;;;;;;0.20;0.10;;;1.20;99.90;;;;;;5063230;28;20655;-66
2021/11/30 07:01:38;;;;;;;0.20;0.20;;;1.20;99.90;;;;;;5054327;28;20090;-65
2021/11/30 07:04:04;;;;;;;0.20;0.20;;;1.20;99.90;;;;;;5064632;28;20044;-65
2021/11/30 07:06:54;;;;;;;0.28;0.25;;;1.20;99.90;;;;;;5066166;28;20136;-66
2021/11/30 07:09:35;;;;;;;0.20;0.20;;;1.20;99.90;;;;;;5062076;28;20080;-66
2021/11/30 07:12:09;;;;;;;0.10;0.10;;;1.30;99.90;;;;;;5061275;28;20560;-66
2021/11/30 07:14:35;;;;;;;0.10;0.10;;;1.30;99.90;;;;;;5065194;28;20552;-66
2021/11/30 07:17:01;;;;;;;0.10;0.10;;;1.30;99.90;;;;;;5057950;28;20123;-65
2021/11/30 07:19:29;;;;;;;0.20;0.20;;;1.30;99.90;;;;;;5061463;28;20040;-65
2021/11/30 07:21:55;;;;;;;0.25;0.20;;;1.30;99.90;;;;;;5059153;28;20041;-65
2021/11/30 07:24:21;;;;;;;0.10;0.10;;;1.40;99.90;;;;;;5058274;28;20065;-65
2021/11/30 07:26:46;;;;;;;0.20;0.20;;;1.40;99.90;;;;;;5059458;28;20041;-65
2021/11/30 07:29:12;;;;;;;2.17;0.30;;;1.40;99.90;;;;;;5065931;28;20033;-65
2021/11/30 07:31:38;;;;;;;1.77;0.93;;;1.40;99.90;;;;;;5084052;28;20060;-65
2021/11/30 07:34:04;;;;;;;0.30;0.20;;;1.50;99.90;;;;;;5068909;28;20040;-65
2021/11/30 07:36:30;;;;;;;0.20;0.20;;;1.50;99.90;;;;;;5076038;28;20049;-65
2021/11/30 07:38:56;;;;;;;0.17;0.17;;;1.50;99.90;;;;;;5070333;28;20712;-65
2021/11/30 07:41:23;;;;;;;24.42;12.38;;;1.60;99.90;;;;;;5059739;28;20087;-65
2021/11/30 07:43:49;;;;;;;1.08;0.57;;;1.60;99.90;;;;;;5065714;28;20040;-65
2021/11/30 07:46:15;;;;;;;3.17;1.73;;;1.60;99.90;;;;;;5061419;28;20044;-65
2021/11/30 07:48:40;;;;;;;2.38;1.25;;;1.70;99.90;;;;;;5069139;28;20048;-65
2021/11/30 07:51:10;;;;;;;0.60;0.25;;;1.70;99.90;;;;;;5062066;28;20041;-65
2021/11/30 07:53:40;;;;;;;0.20;0.20;;;1.70;99.90;;;;;;5064309;28;20033;-65
2021/11/30 07:56:06;;;;;;;0.57;0.20;;;1.70;99.90;;;;;;5066438;28;20046;-65
2021/11/30 07:58:32;;;;;;;40.60;16.38;;;1.70;99.90;;;;;;5069234;28;20037;-65
2021/11/30 08:00:58;;;;;;;4.05;1.40;;;1.80;99.90;;;;;;5062960;28;20044;-65
2021/11/30 08:03:24;;;;;;;0.35;0.30;;;1.80;99.90;;;;;;5063488;28;20045;-65
2021/11/30 08:05:49;;;;;;;0.93;0.40;;;1.80;99.90;;;;;;5064996;28;20044;-65
2021/11/30 08:08:16;;;;;;;4.03;1.90;;;1.90;99.90;;;;;;5065503;28;20037;-65
2021/11/30 08:10:41;;;;;;;2.00;0.85;;;1.90;99.90;;;;;;5065575;28;20036;-65
2021/11/30 08:13:07;;;;;;;0.22;0.20;;;1.90;99.90;;;;;;5061502;28;20042;-68
2021/11/30 08:15:34;;;;;;;1.08;0.35;;;1.90;99.90;;;;;;5078961;28;20039;-68
2021/11/30 08:18:00;;;;;;;0.47;0.25;;;1.90;99.90;;;;;;5064063;28;20044;-68
2021/11/30 08:20:26;;;;;;;0.80;0.50;;;1.90;99.90;;;;;;5068802;28;20120;-66
2021/11/30 08:22:51;;;;;;;2.05;1.00;;;2.00;99.90;;;;;;5061829;28;20033;-64
2021/11/30 08:25:17;;;;;;;12.18;5.35;;;1.90;99.90;;;;;;5064750;28;20041;-65
2021/11/30 08:27:43;;;;;;;2.95;0.52;;;1.90;99.90;;;;;;5071578;28;20097;-65
2021/11/30 08:30:10;;;;;;;1.73;0.40;;;2.00;99.90;;;;;;5069391;28;20040;-67
2021/11/30 08:32:37;;;;;;;2.47;0.95;;;2.00;99.90;;;;;;5058759;28;20582;-65
2021/11/30 08:35:04;;;;;;;6.43;2.72;;;2.00;99.90;;;;;;5058810;28;20080;-64
2021/11/30 08:37:30;;;;;;;2.17;0.93;;;2.00;99.90;;;;;;5056927;28;20040;-64
2021/11/30 08:39:56;;;;;;;2.58;1.17;;;2.00;99.90;;;;;;5065138;28;20039;-64
2021/11/30 08:42:22;;;;;;;0.60;0.40;;;2.00;99.90;;;;;;5059191;28;20044;-64
2021/11/30 08:44:50;;;;;;;0.55;0.25;;;2.00;99.90;;;;;;5064948;28;20036;-64
2021/11/30 08:47:20;;;;;;;0.10;0.10;;;2.10;99.90;;;;;;5060118;28;20037;-68
2021/11/30 08:49:45;;;;;;;0.30;0.20;;;2.10;99.90;;;;;;5065825;28;20048;-68
2021/11/30 08:52:16;;;;;;;4.70;0.20;;;2.10;99.90;;;;;;5058373;28;20037;-66
2021/11/30 08:54:42;;;;;;;0.55;0.30;;;2.20;99.90;;;;;;5062414;28;20047;-64
2021/11/30 08:57:10;;;;;;;0.20;0.20;;;2.20;99.90;;;;;;5063232;28;20075;-65
2021/11/30 08:59:38;;;;;;;4.32;1.05;;;2.20;99.90;;;;;;5065428;28;20063;-65
2021/11/30 09:02:04;;;;;;;1.92;0.80;;;2.30;99.90;;;;;;5059381;28;20086;-64
2021/11/30 09:04:30;;;;;;;0.30;0.20;;;2.30;99.90;;;;;;5063451;28;20055;-65
2021/11/30 09:06:55;;;;;;;0.60;0.38;;;2.40;99.90;;;;;;5081433;28;20496;-65
2021/11/30 09:09:21;;;;;;;1.50;0.50;;;2.40;99.90;;;;;;5060552;28;20527;-65
2021/11/30 09:11:47;;;;;;;0.65;0.30;;;2.40;99.90;;;;;;5065351;28;20127;-64
2021/11/30 09:14:15;;;;;;;2.17;0.40;;;2.40;99.90;;;;;;5063918;28;20064;-63
2021/11/30 09:16:41;;;;;;;0.22;0.22;;;2.40;99.90;;;;;;5075728;28;20043;-63
2021/11/30 09:19:06;;;;;;;0.45;0.20;;;2.50;99.90;;;;;;5077733;28;20574;-64
2021/11/30 09:21:32;;;;;;;0.77;0.40;;;2.60;99.90;;;;;;5062511;28;20039;-64
2021/11/30 09:23:58;;;;;;;0.50;0.22;;;2.60;99.90;;;;;;5068171;28;20040;-64
2021/11/30 09:26:24;;;;;;;0.75;0.20;;;2.60;99.90;;;;;;5067206;28;20089;-64
2021/11/30 09:28:50;;;;;;;0.20;0.20;;;2.70;99.90;;;;;;5080007;28;20113;-63
2021/11/30 09:31:16;;;;;;;0.20;0.20;;;2.70;99.90;;;;;;5065572;28;20074;-65
2021/11/30 09:33:43;;;;;;;0.20;0.20;;;2.70;99.90;;;;;;5071259;28;20097;-64
2021/11/30 09:36:10;;;;;;;0.20;0.20;;;2.70;99.90;;;;;;5065174;28;20036;-63
2021/11/30 09:38:37;;;;;;;0.20;0.20;;;2.80;99.90;;;;;;5066042;28;20047;-63
2021/11/30 09:41:04;;;;;;;0.30;0.20;;;2.80;99.90;;;;;;5077739;28;20063;-64
2021/11/30 09:43:32;;;;;;;1.38;0.20;;;2.80;99.90;;;;;;5078236;28;20043;-64
2021/11/30 09:45:59;;;;;;;0.32;0.20;;;2.90;99.90;;;;;;5064887;28;20043;-63
2021/11/30 09:48:26;;;;;;;0.10;0.10;;;2.90;99.90;;;;;;5067491;28;20044;-63
2021/11/30 09:50:52;;;;;;;3.17;1.05;;;2.90;99.90;;;;;;5061658;28;20037;-65
2021/11/30 09:53:18;;;;;;;0.60;0.38;;;2.90;99.90;;;;;;5061855;28;20036;-64
2021/11/30 09:55:47;;;;;;;1.27;0.28;;;2.90;99.90;;;;;;5055531;28;20107;-64
2021/11/30 09:58:14;;;;;;;0.40;0.22;;;2.90;99.90;;;;;;5061963;28;20795;-64
2021/11/30 10:00:41;;;;;;;1.75;0.38;;;3.00;99.90;;;;;;5053703;28;20036;-64
2021/11/30 10:03:08;;;;;;;0.68;0.20;;;3.10;99.90;;;;;;5061191;28;20116;-64
2021/11/30 10:05:34;;;;;;;0.35;0.25;;;3.10;99.90;;;;;;5062729;28;20045;-65
2021/11/30 10:08:01;;;;;;;2.53;1.33;;;3.20;99.90;;;;;;5053840;28;20032;-65
2021/11/30 10:10:30;;;;;;;1.80;0.82;;;3.30;99.90;;;;;;5068044;28;20522;-65
2021/11/30 10:13:05;;;;;;;4.30;1.20;;;3.30;99.90;;;;;;5067598;28;20047;-64
2021/11/30 10:15:47;;;;;;;1.25;0.55;;;3.30;99.90;;;;;;5059971;28;20040;-64
2021/11/30 10:18:31;;;;;;;2.78;0.93;;;3.40;99.90;;;;;;5062181;28;20056;-64
2021/11/30 10:21:20;;;;;;;4.15;2.30;;;3.40;99.90;;;;;;5057289;28;20052;-64
2021/11/30 10:24:01;;;;;;;4.18;1.17;;;3.40;99.90;;;;;;5068060;28;20071;-64
2021/11/30 10:26:36;;;;;;;3.78;1.52;;;3.50;99.90;;;;;;5066996;28;20052;-64
2021/11/30 10:29:12;;;;;;;0.65;0.40;;;3.50;99.90;;;;;;5069589;28;20116;-64
2021/11/30 10:31:37;;;;;;;;;;;3.50;99.90;;;;;;5061608;28;20174;-64
2021/11/30 10:34:24;;;;;;;3.53;0.55;;;3.60;99.90;;;;;;5066779;28;20015;-63
2021/11/30 10:36:58;;;;;;;2.53;0.40;;;3.60;99.90;;;;;;5058225;28;20131;-64
2021/11/30 10:39:30;;;;;;;1.52;0.30;;;3.70;99.90;;;;;;5068622;28;20037;-63
2021/11/30 10:42:22;;;;;;;0.32;0.20;;;3.70;99.90;;;;;;5069819;28;20051;-64
2021/11/30 10:44:51;;;;;;;0.70;0.38;;;3.70;99.90;;;;;;5068903;28;20086;-64
2021/11/30 10:47:20;;;;;;;0.40;0.20;;;3.70;99.90;;;;;;5075387;28;20044;-63
2021/11/30 10:49:51;;;;;;;0.50;0.30;;;3.80;99.90;;;;;;5072812;28;20043;-65
2021/11/30 10:52:28;;;;;;;2.33;0.20;;;3.90;99.90;;;;;;5078439;28;20050;-65
2021/11/30 10:55:16;;;;;;;0.80;0.30;;;3.90;99.90;;;;;;5072115;28;20093;-65
2021/11/30 10:57:43;;;;;;;0.35;0.28;;;4.00;99.90;;;;;;5094464;28;20075;-64
2021/11/30 11:00:29;;;;;;;0.70;0.20;;;4.00;99.90;;;;;;5072286;28;20396;-65
2021/11/30 11:03:02;;;;;;;0.65;0.30;;;4.10;99.90;;;;;;5067076;28;20132;-64
2021/11/30 11:05:38;;;;;;;0.57;0.20;;;4.10;99.90;;;;;;5065435;28;20035;-65
2021/11/30 11:08:16;;;;;;;1.55;0.20;;;4.10;99.90;;;;;;5067485;28;20045;-64
2021/11/30 11:10:48;;;;;;;0.20;0.20;;;4.10;99.90;;;;;;5063425;28;20106;-65
2021/11/30 11:13:26;;;;;;;0.40;0.20;;;4.20;99.90;;;;;;5059226;28;20040;-64
2021/11/30 11:15:54;;;;;;;0.20;0.20;;;4.20;99.90;;;;;;5058747;28;20037;-64
2021/11/30 11:18:41;;;;;;;0.50;0.30;;;4.20;99.90;;;;;;5063598;28;20041;-64
2021/11/30 11:21:12;;;;;;;0.15;0.13;;;4.20;99.90;;;;;;5055755;28;20033;-64
2021/11/30 11:23:42;;;;;;;0.32;0.20;;;4.30;99.90;;;;;;5065164;28;20554;-63
2021/11/30 11:26:38;;;;;;;0.85;0.40;;;4.30;99.90;;;;;;5062941;28;20279;-64
2021/11/30 11:29:17;;;;;;;1.27;0.20;;;4.40;99.90;;;;;;5051893;28;20660;-64
2021/11/30 11:31:48;;;;;;;0.38;0.20;;;4.40;99.90;;;;;;5055513;28;20570;-64
2021/11/30 11:34:16;;;;;;;1.08;0.30;;;4.40;99.90;;;;;;5059254;28;20037;-64
2021/11/30 11:36:44;;;;;;;0.20;0.20;;;4.40;99.90;;;;;;5053221;28;20393;-64
2021/11/30 11:39:10;;;;;;;2.22;0.20;;;4.50;99.90;;;;;;5066176;28;20392;-63
2021/11/30 11:41:36;;;;;;;0.75;0.20;;;4.50;99.90;;;;;;5055041;28;20076;-65
2021/11/30 11:44:02;;;;;;;0.20;0.20;;;4.50;99.90;;;;;;5065686;28;20519;-67
2021/11/30 11:46:33;;;;;;;3.13;1.17;;;4.50;99.90;;;;;;5058321;28;20041;-63
2021/11/30 11:49:02;;;;;;;0.20;0.20;;;4.50;99.90;;;;;;5062434;28;20060;-64
2021/11/30 11:51:36;;;;;;;0.40;0.10;;;4.50;99.90;;;;;;5063951;28;20095;-63
2021/11/30 11:54:08;;;;;;;0.40;0.20;;;4.60;99.90;;;;;;5057879;28;20033;-67
2021/11/30 11:56:35;;;;;;;0.10;0.10;;;4.60;99.90;;;;;;5062262;28;20047;-68
2021/11/30 11:59:34;;;;;;;0.20;0.20;;;4.50;99.90;;;;;;5068071;28;20072;-63
2021/11/30 12:02:21;;;;;;;3.00;0.20;;;4.60;99.90;;;;;;5046898;28;20119;-66
2021/11/30 12:05:06;;;;;;;0.73;0.15;;;4.60;99.90;;;;;;5067216;28;20043;-65
2021/11/30 12:07:52;;;;;;;17.85;10.88;;;4.60;99.90;;;;;;5077520;28;20403;-63
2021/11/30 12:10:18;;;;;;;1.55;0.63;;;4.60;99.90;;;;;;5067479;28;20044;-60
2021/11/30 12:13:01;;;;;;;1.15;0.40;;;4.50;99.90;;;;;;5073640;28;20507;-62
2021/11/30 12:15:31;;;;;;;6.25;3.60;;;4.70;99.90;;;;;;5071512;28;20127;-62
2021/11/30 12:18:32;;;;;;;7.75;1.92;;;4.70;99.90;;;;;;5080916;28;20514;-61
2021/11/30 12:21:12;;;;;;;0.85;0.40;;;4.80;99.90;;;;;;5062145;28;20040;-62
2021/11/30 12:23:39;;;;;;;1.42;0.30;;;4.80;99.90;;;;;;5070149;28;20044;-61
2021/11/30 12:26:41;;;;;;;0.15;0.15;;;4.80;99.90;;;;;;5066925;28;20049;-62
2021/11/30 12:29:19;;;;;;;0.80;0.30;;;4.80;99.90;;;;;;5063299;28;20119;-62
2021/11/30 12:31:46;;;;;;;4.82;1.38;;;4.80;99.90;;;;;;5058294;28;20044;-62
2021/11/30 12:34:40;;;;;;;2.13;0.30;;;4.70;99.90;;;;;;5058336;28;20032;-61
2021/11/30 12:37:10;;;;;;;1.35;0.32;;;4.80;99.90;;;;;;5080693;28;20036;-63
2021/11/30 12:39:58;;;;;;;1.42;0.40;;;4.80;99.90;;;;;;5072957;28;20083;-62
2021/11/30 12:42:26;;;;;;;1.00;0.22;;;4.80;99.90;;;;;;5071881;28;20740;-62
2021/11/30 12:44:53;;;;;;;1.17;0.30;;;4.80;99.90;;;;;;5069171;28;20040;-62
2021/11/30 12:47:23;;;;;;;0.47;0.20;;;4.70;99.90;;;;;;5079608;28;20119;-59
2021/11/30 12:49:49;;;;;;;1.40;0.52;;;4.70;99.90;;;;;;5069752;28;20028;-60
2021/11/30 12:52:33;;;;;;;11.82;3.97;;;4.70;99.90;;;;;;5074353;28;20591;-61
2021/11/30 12:55:01;;;;;;;2.50;0.50;;;4.80;99.90;;;;;;5059473;28;20111;-62
2021/11/30 12:57:33;;;;;;;0.38;0.20;;;4.80;99.90;;;;;;5064941;28;20691;-58
2021/11/30 13:00:23;;;;;;;0.70;0.30;;;4.80;99.90;;;;;;5067172;28;20064;-61
2021/11/30 13:02:51;;;;;;;1.20;0.30;;;4.90;99.90;;;;;;5056246;28;20037;-60
2021/11/30 13:05:21;;;;;;;0.75;0.35;;;4.90;99.90;;;;;;5066062;28;20040;-59
2021/11/30 13:07:46;;;;;;;2.50;0.50;;;4.80;99.90;;;;;;5060062;28;20095;-60
2021/11/30 13:10:27;;;;;;;1.48;0.80;;;4.80;99.90;;;;;;5067547;28;20564;-61
2021/11/30 13:12:56;;;;;;;0.60;0.50;;;4.80;99.90;;;;;;5064898;28;20419;-60